sensor_id;sensor_type;location;lat;lon;timestamp;temperature;humidity
11772;DHT22;12556;55.748;13.194;2023-06-22T00:02:17;17.20;99.90
11772;DHT22;12556;55.748;13.194;2023-06-22T00:04:44;17.10;99.90
11772;DHT22;12556;55.748;13.194;2023-06-22T00:07:11;17.20;99.90
11772;DHT22;12556;55.748;13.194;2023-06-22T00:09:38;17.10;99.90
11772;DHT22;12556;55.748;13.194;2023-06-22T00:12:05;17.10;99.90
11772;DHT22;12556;55.748;13.194;2023-06-22T00:14:34;17.10;99.90
11772;DHT22;12556;55.748;13.194;2023-06-22T00:17:01;17.00;99.90
11772;DHT22;12556;55.748;13.194;2023-06-22T00:19:27;17.00;99.90
11772;DHT22;12556;55.748;13.194;2023-06-22T00:21:54;17.00;99.90
11772;DHT22;12556;55.748;13.194;2023-06-22T00:24:25;17.00;99.90
11772;DHT22;12556;55.748;13.194;2023-06-22T00:26:52;17.00;99.90
11772;DHT22;12556;55.748;13.194;2023-06-22T00:29:19;17.00;99.90
11772;DHT22;12556;55.748;13.194;2023-06-22T00:31:47;17.00;99.90
11772;DHT22;12556;55.748;13.194;2023-06-22T00:34:14;17.00;99.90
11772;DHT22;12556;55.748;13.194;2023-06-22T00:36:41;16.90;99.90
11772;DHT22;12556;55.748;13.194;2023-06-22T00:39:08;17.00;99.90
11772;DHT22;12556;55.748;13.194;2023-06-22T00:41:35;16.90;99.90
11772;DHT22;12556;55.748;13.194;2023-06-22T00:44:02;16.90;99.90
11772;DHT22;12556;55.748;13.194;2023-06-22T00:46:29;16.90;99.90
11772;DHT22;12556;55.748;13.194;2023-06-22T00:48:58;16.90;99.90
11772;DHT22;12556;55.748;13.194;2023-06-22T00:51:26;16.90;99.90
11772;DHT22;12556;55.748;13.194;2023-06-22T00:53:52;16.90;99.90
11772;DHT22;12556;55.748;13.194;2023-06-22T00:56:19;16.80;99.90
11772;DHT22;12556;55.748;13.194;2023-06-22T00:58:50;16.80;99.90
11772;DHT22;12556;55.748;13.194;2023-06-22T01:01:19;16.80;99.90
11772;DHT22;12556;55.748;13.194;2023-06-22T01:03:49;16.80;99.90
11772;DHT22;12556;55.748;13.194;2023-06-22T01:06:21;16.70;99.90
11772;DHT22;12556;55.748;13.194;2023-06-22T01:09:00;16.70;99.90
11772;DHT22;12556;55.748;13.194;2023-06-22T01:11:31;16.70;99.90
11772;DHT22;12556;55.748;13.194;2023-06-22T01:14:03;16.60;99.90
11772;DHT22;12556;55.748;13.194;2023-06-22T01:16:35;16.70;99.90
11772;DHT22;12556;55.748;13.194;2023-06-22T01:21:55;16.70;99.90
11772;DHT22;12556;55.748;13.194;2023-06-22T01:24:25;16.70;99.90
11772;DHT22;12556;55.748;13.194;2023-06-22T01:27:00;16.60;99.90
11772;DHT22;12556;55.748;13.194;2023-06-22T01:29:33;16.60;99.90
11772;DHT22;12556;55.748;13.194;2023-06-22T01:32:06;16.60;99.90
11772;DHT22;12556;55.748;13.194;2023-06-22T01:34:33;16.60;99.90
11772;DHT22;12556;55.748;13.194;2023-06-22T01:37:01;16.60;99.90
11772;DHT22;12556;55.748;13.194;2023-06-22T01:39:29;16.50;99.90
11772;DHT22;12556;55.748;13.194;2023-06-22T01:41:57;16.50;99.90
11772;DHT22;12556;55.748;13.194;2023-06-22T01:44:25;16.50;99.90
11772;DHT22;12556;55.748;13.194;2023-06-22T01:46:54;16.50;99.90
11772;DHT22;12556;55.748;13.194;2023-06-22T01:49:21;16.40;99.90
11772;DHT22;12556;55.748;13.194;2023-06-22T01:51:48;16.50;99.90
11772;DHT22;12556;55.748;13.194;2023-06-22T01:54:15;16.40;99.90
11772;DHT22;12556;55.748;13.194;2023-06-22T01:56:42;16.40;99.90
11772;DHT22;12556;55.748;13.194;2023-06-22T01:59:13;16.40;99.90
11772;DHT22;12556;55.748;13.194;2023-06-22T02:01:44;16.40;99.90
11772;DHT22;12556;55.748;13.194;2023-06-22T02:04:20;16.40;99.90
11772;DHT22;12556;55.748;13.194;2023-06-22T02:06:51;16.30;99.90
11772;DHT22;12556;55.748;13.194;2023-06-22T02:09:22;16.30;99.90
11772;DHT22;12556;55.748;13.194;2023-06-22T02:11:52;16.40;99.90
11772;DHT22;12556;55.748;13.194;2023-06-22T02:14:22;16.40;99.90
11772;DHT22;12556;55.748;13.194;2023-06-22T02:16:50;16.40;99.90
11772;DHT22;12556;55.748;13.194;2023-06-22T02:19:22;16.30;99.90
11772;DHT22;12556;55.748;13.194;2023-06-22T02:21:50;16.30;99.90
11772;DHT22;12556;55.748;13.194;2023-06-22T02:24:17;16.40;99.90
11772;DHT22;12556;55.748;13.194;2023-06-22T02:26:44;16.40;99.90
11772;DHT22;12556;55.748;13.194;2023-06-22T02:29:11;16.30;99.90
11772;DHT22;12556;55.748;13.194;2023-06-22T02:31:38;16.30;99.90
11772;DHT22;12556;55.748;13.194;2023-06-22T02:34:05;16.30;99.90
11772;DHT22;12556;55.748;13.194;2023-06-22T02:36:33;16.30;99.90
11772;DHT22;12556;55.748;13.194;2023-06-22T02:39:00;16.30;99.90
11772;DHT22;12556;55.748;13.194;2023-06-22T02:41:29;16.30;99.90
11772;DHT22;12556;55.748;13.194;2023-06-22T02:43:56;16.30;99.90
11772;DHT22;12556;55.748;13.194;2023-06-22T02:46:23;16.30;99.90
11772;DHT22;12556;55.748;13.194;2023-06-22T02:48:49;16.30;99.90
11772;DHT22;12556;55.748;13.194;2023-06-22T02:51:16;16.30;99.90
11772;DHT22;12556;55.748;13.194;2023-06-22T02:53:44;16.30;99.90
11772;DHT22;12556;55.748;13.194;2023-06-22T02:56:12;16.30;99.90
11772;DHT22;12556;55.748;13.194;2023-06-22T02:58:39;16.30;99.90
11772;DHT22;12556;55.748;13.194;2023-06-22T03:01:07;16.30;99.90
11772;DHT22;12556;55.748;13.194;2023-06-22T03:03:38;16.30;99.90
11772;DHT22;12556;55.748;13.194;2023-06-22T03:06:05;16.30;99.90
11772;DHT22;12556;55.748;13.194;2023-06-22T03:08:33;16.30;99.90
11772;DHT22;12556;55.748;13.194;2023-06-22T03:11:01;16.30;99.90
11772;DHT22;12556;55.748;13.194;2023-06-22T03:13:28;16.30;99.90
11772;DHT22;12556;55.748;13.194;2023-06-22T03:15:55;16.40;99.90
11772;DHT22;12556;55.748;13.194;2023-06-22T03:18:22;16.40;99.90
11772;DHT22;12556;55.748;13.194;2023-06-22T03:20:49;16.40;99.90
11772;DHT22;12556;55.748;13.194;2023-06-22T03:23:16;16.40;99.90
11772;DHT22;12556;55.748;13.194;2023-06-22T03:25:43;16.40;99.90
11772;DHT22;12556;55.748;13.194;2023-06-22T03:28:12;16.50;99.90
11772;DHT22;12556;55.748;13.194;2023-06-22T03:30:39;16.40;99.90
11772;DHT22;12556;55.748;13.194;2023-06-22T03:33:06;16.50;99.90
11772;DHT22;12556;55.748;13.194;2023-06-22T03:35:33;16.50;99.90
11772;DHT22;12556;55.748;13.194;2023-06-22T03:37:59;16.60;99.90
11772;DHT22;12556;55.748;13.194;2023-06-22T03:40:26;16.50;99.90
11772;DHT22;12556;55.748;13.194;2023-06-22T03:42:53;16.60;99.90
11772;DHT22;12556;55.748;13.194;2023-06-22T03:45:21;16.60;99.90
11772;DHT22;12556;55.748;13.194;2023-06-22T03:47:48;16.70;99.90
11772;DHT22;12556;55.748;13.194;2023-06-22T03:50:15;16.70;99.90
11772;DHT22;12556;55.748;13.194;2023-06-22T03:52:42;16.70;99.90
11772;DHT22;12556;55.748;13.194;2023-06-22T03:55:09;16.70;99.90
11772;DHT22;12556;55.748;13.194;2023-06-22T03:57:36;16.80;99.90
11772;DHT22;12556;55.748;13.194;2023-06-22T04:00:04;16.80;99.90
11772;DHT22;12556;55.748;13.194;2023-06-22T04:02:32;16.80;99.90
11772;DHT22;12556;55.748;13.194;2023-06-22T04:04:59;16.90;99.90
11772;DHT22;12556;55.748;13.194;2023-06-22T04:07:26;16.90;99.90
11772;DHT22;12556;55.748;13.194;2023-06-22T04:09:53;17.00;99.90
11772;DHT22;12556;55.748;13.194;2023-06-22T04:12:19;17.00;99.90
11772;DHT22;12556;55.748;13.194;2023-06-22T04:14:46;17.00;99.90
11772;DHT22;12556;55.748;13.194;2023-06-22T04:17:13;17.10;99.90
11772;DHT22;12556;55.748;13.194;2023-06-22T04:19:42;17.10;99.90
11772;DHT22;12556;55.748;13.194;2023-06-22T04:22:09;17.20;99.90
11772;DHT22;12556;55.748;13.194;2023-06-22T04:24:37;17.20;99.90
11772;DHT22;12556;55.748;13.194;2023-06-22T04:27:04;17.30;99.90
11772;DHT22;12556;55.748;13.194;2023-06-22T04:29:32;17.30;99.90
11772;DHT22;12556;55.748;13.194;2023-06-22T04:31:58;17.40;99.90
11772;DHT22;12556;55.748;13.194;2023-06-22T04:34:28;17.40;99.90
11772;DHT22;12556;55.748;13.194;2023-06-22T04:36:57;17.40;99.90
11772;DHT22;12556;55.748;13.194;2023-06-22T04:39:24;17.50;99.90
11772;DHT22;12556;55.748;13.194;2023-06-22T04:41:52;17.50;99.90
11772;DHT22;12556;55.748;13.194;2023-06-22T04:44:25;17.60;99.90
11772;DHT22;12556;55.748;13.194;2023-06-22T04:46:54;17.70;99.90
11772;DHT22;12556;55.748;13.194;2023-06-22T04:49:26;17.80;99.90
11772;DHT22;12556;55.748;13.194;2023-06-22T04:52:00;17.80;99.90
11772;DHT22;12556;55.748;13.194;2023-06-22T04:54:27;17.90;99.90
11772;DHT22;12556;55.748;13.194;2023-06-22T04:56:54;18.00;99.90
11772;DHT22;12556;55.748;13.194;2023-06-22T04:59:23;18.10;99.90
11772;DHT22;12556;55.748;13.194;2023-06-22T05:01:54;18.20;99.90
11772;DHT22;12556;55.748;13.194;2023-06-22T05:04:21;18.40;99.90
11772;DHT22;12556;55.748;13.194;2023-06-22T05:06:49;18.40;99.90
11772;DHT22;12556;55.748;13.194;2023-06-22T05:09:18;18.60;99.90
11772;DHT22;12556;55.748;13.194;2023-06-22T05:11:45;18.70;99.90
11772;DHT22;12556;55.748;13.194;2023-06-22T05:14:12;18.80;99.90
11772;DHT22;12556;55.748;13.194;2023-06-22T05:16:41;18.80;99.90
11772;DHT22;12556;55.748;13.194;2023-06-22T05:19:08;18.90;99.90
11772;DHT22;12556;55.748;13.194;2023-06-22T05:21:35;18.90;99.90
11772;DHT22;12556;55.748;13.194;2023-06-22T05:24:03;19.00;99.90
11772;DHT22;12556;55.748;13.194;2023-06-22T05:26:32;19.00;99.90
11772;DHT22;12556;55.748;13.194;2023-06-22T05:29:00;19.00;99.90
11772;DHT22;12556;55.748;13.194;2023-06-22T05:31:28;19.00;99.90
11772;DHT22;12556;55.748;13.194;2023-06-22T05:33:56;19.00;99.90
11772;DHT22;12556;55.748;13.194;2023-06-22T05:36:22;19.10;99.90
11772;DHT22;12556;55.748;13.194;2023-06-22T05:38:51;19.10;99.90
11772;DHT22;12556;55.748;13.194;2023-06-22T05:41:18;19.20;99.90
11772;DHT22;12556;55.748;13.194;2023-06-22T05:43:47;19.20;99.90
11772;DHT22;12556;55.748;13.194;2023-06-22T05:46:14;19.20;99.90
11772;DHT22;12556;55.748;13.194;2023-06-22T05:48:41;19.20;99.90
11772;DHT22;12556;55.748;13.194;2023-06-22T05:51:08;19.30;99.90
11772;DHT22;12556;55.748;13.194;2023-06-22T05:53:35;19.40;99.90
11772;DHT22;12556;55.748;13.194;2023-06-22T05:56:02;19.50;99.90
11772;DHT22;12556;55.748;13.194;2023-06-22T05:58:29;19.60;99.90
11772;DHT22;12556;55.748;13.194;2023-06-22T06:00:58;19.70;99.90
11772;DHT22;12556;55.748;13.194;2023-06-22T06:03:26;19.80;99.90
11772;DHT22;12556;55.748;13.194;2023-06-22T06:05:54;19.90;99.90
11772;DHT22;12556;55.748;13.194;2023-06-22T06:08:21;20.00;99.90
11772;DHT22;12556;55.748;13.194;2023-06-22T06:10:48;20.00;99.90
11772;DHT22;12556;55.748;13.194;2023-06-22T06:13:15;20.10;99.90
11772;DHT22;12556;55.748;13.194;2023-06-22T06:15:42;20.20;99.90
11772;DHT22;12556;55.748;13.194;2023-06-22T06:18:10;20.20;99.90
11772;DHT22;12556;55.748;13.194;2023-06-22T06:20:37;20.30;99.90
11772;DHT22;12556;55.748;13.194;2023-06-22T06:23:04;20.50;99.90
11772;DHT22;12556;55.748;13.194;2023-06-22T06:25:31;20.80;99.90
11772;DHT22;12556;55.748;13.194;2023-06-22T06:27:57;20.90;99.90
11772;DHT22;12556;55.748;13.194;2023-06-22T06:30:24;21.10;99.90
11772;DHT22;12556;55.748;13.194;2023-06-22T06:32:51;21.30;99.90
11772;DHT22;12556;55.748;13.194;2023-06-22T06:35:20;21.50;99.90
11772;DHT22;12556;55.748;13.194;2023-06-22T06:37:48;21.60;99.90
11772;DHT22;12556;55.748;13.194;2023-06-22T06:40:16;21.70;99.90
11772;DHT22;12556;55.748;13.194;2023-06-22T06:42:44;21.80;99.90
11772;DHT22;12556;55.748;13.194;2023-06-22T06:45:12;21.90;99.90
11772;DHT22;12556;55.748;13.194;2023-06-22T06:47:39;21.90;99.90
11772;DHT22;12556;55.748;13.194;2023-06-22T06:50:07;21.90;99.90
11772;DHT22;12556;55.748;13.194;2023-06-22T06:52:36;22.00;99.90
11772;DHT22;12556;55.748;13.194;2023-06-22T06:55:03;22.00;99.90
11772;DHT22;12556;55.748;13.194;2023-06-22T06:57:33;22.20;99.90
11772;DHT22;12556;55.748;13.194;2023-06-22T07:00:00;22.30;99.90
11772;DHT22;12556;55.748;13.194;2023-06-22T07:02:36;22.50;99.90
11772;DHT22;12556;55.748;13.194;2023-06-22T07:05:03;22.70;99.90
11772;DHT22;12556;55.748;13.194;2023-06-22T07:07:30;22.80;99.90
11772;DHT22;12556;55.748;13.194;2023-06-22T07:09:59;22.70;99.90
11772;DHT22;12556;55.748;13.194;2023-06-22T07:12:26;22.50;99.90
11772;DHT22;12556;55.748;13.194;2023-06-22T07:14:53;22.40;99.90
11772;DHT22;12556;55.748;13.194;2023-06-22T07:17:20;22.50;99.90
11772;DHT22;12556;55.748;13.194;2023-06-22T07:19:47;22.60;99.90
11772;DHT22;12556;55.748;13.194;2023-06-22T07:22:13;22.70;99.90
11772;DHT22;12556;55.748;13.194;2023-06-22T07:24:40;22.80;99.90
11772;DHT22;12556;55.748;13.194;2023-06-22T07:27:09;22.80;99.90
11772;DHT22;12556;55.748;13.194;2023-06-22T07:29:37;23.10;99.90
11772;DHT22;12556;55.748;13.194;2023-06-22T07:32:06;23.30;99.90
11772;DHT22;12556;55.748;13.194;2023-06-22T07:34:34;23.10;99.90
11772;DHT22;12556;55.748;13.194;2023-06-22T07:37:01;23.10;99.90
11772;DHT22;12556;55.748;13.194;2023-06-22T07:39:28;23.10;99.90
11772;DHT22;12556;55.748;13.194;2023-06-22T07:41:55;23.20;99.90
11772;DHT22;12556;55.748;13.194;2023-06-22T07:44:24;23.40;99.90
11772;DHT22;12556;55.748;13.194;2023-06-22T07:46:50;23.40;99.90
11772;DHT22;12556;55.748;13.194;2023-06-22T07:49:17;23.70;99.90
11772;DHT22;12556;55.748;13.194;2023-06-22T07:51:44;23.80;99.90
11772;DHT22;12556;55.748;13.194;2023-06-22T07:54:11;23.90;99.90
11772;DHT22;12556;55.748;13.194;2023-06-22T07:56:38;23.90;99.90
11772;DHT22;12556;55.748;13.194;2023-06-22T07:59:05;23.80;99.90
11772;DHT22;12556;55.748;13.194;2023-06-22T08:01:33;23.80;99.90
11772;DHT22;12556;55.748;13.194;2023-06-22T08:04:00;23.90;99.90
11772;DHT22;12556;55.748;13.194;2023-06-22T08:06:29;24.00;99.90
11772;DHT22;12556;55.748;13.194;2023-06-22T08:08:56;24.20;99.90
11772;DHT22;12556;55.748;13.194;2023-06-22T08:11:24;24.30;99.90
11772;DHT22;12556;55.748;13.194;2023-06-22T08:13:51;24.30;99.90
11772;DHT22;12556;55.748;13.194;2023-06-22T08:16:18;24.40;99.90
11772;DHT22;12556;55.748;13.194;2023-06-22T08:18:47;24.70;99.90
11772;DHT22;12556;55.748;13.194;2023-06-22T08:21:13;25.00;99.90
11772;DHT22;12556;55.748;13.194;2023-06-22T08:23:41;25.20;99.90
11772;DHT22;12556;55.748;13.194;2023-06-22T08:26:08;25.30;99.90
11772;DHT22;12556;55.748;13.194;2023-06-22T08:28:35;25.50;99.90
11772;DHT22;12556;55.748;13.194;2023-06-22T08:31:02;25.50;99.90
11772;DHT22;12556;55.748;13.194;2023-06-22T08:33:29;25.80;99.90
11772;DHT22;12556;55.748;13.194;2023-06-22T08:35:58;25.90;99.90
11772;DHT22;12556;55.748;13.194;2023-06-22T08:38:25;26.20;99.60
11772;DHT22;12556;55.748;13.194;2023-06-22T08:40:52;26.20;99.30
11772;DHT22;12556;55.748;13.194;2023-06-22T08:43:19;26.00;99.30
11772;DHT22;12556;55.748;13.194;2023-06-22T08:45:45;26.20;99.40
11772;DHT22;12556;55.748;13.194;2023-06-22T08:48:12;26.40;99.30
11772;DHT22;12556;55.748;13.194;2023-06-22T08:50:39;26.50;98.20
11772;DHT22;12556;55.748;13.194;2023-06-22T08:53:08;26.30;98.20
11772;DHT22;12556;55.748;13.194;2023-06-22T08:55:35;26.40;98.10
11772;DHT22;12556;55.748;13.194;2023-06-22T08:58:02;26.50;97.90
11772;DHT22;12556;55.748;13.194;2023-06-22T09:00:29;26.60;97.70
11772;DHT22;12556;55.748;13.194;2023-06-22T09:02:58;26.80;97.40
11772;DHT22;12556;55.748;13.194;2023-06-22T09:05:25;26.80;96.80
11772;DHT22;12556;55.748;13.194;2023-06-22T09:07:52;27.00;96.70
11772;DHT22;12556;55.748;13.194;2023-06-22T09:10:22;27.20;96.60
11772;DHT22;12556;55.748;13.194;2023-06-22T09:12:48;27.50;96.00
11772;DHT22;12556;55.748;13.194;2023-06-22T09:15:16;27.60;95.80
11772;DHT22;12556;55.748;13.194;2023-06-22T09:17:43;27.70;95.90
11772;DHT22;12556;55.748;13.194;2023-06-22T09:20:11;27.60;95.20
11772;DHT22;12556;55.748;13.194;2023-06-22T09:22:39;27.50;95.30
11772;DHT22;12556;55.748;13.194;2023-06-22T09:25:06;27.60;95.00
11772;DHT22;12556;55.748;13.194;2023-06-22T09:27:35;27.50;95.00
11772;DHT22;12556;55.748;13.194;2023-06-22T09:30:02;27.50;94.70
11772;DHT22;12556;55.748;13.194;2023-06-22T09:32:29;27.70;94.60
11772;DHT22;12556;55.748;13.194;2023-06-22T09:34:56;27.70;94.20
11772;DHT22;12556;55.748;13.194;2023-06-22T09:37:22;27.80;94.30
11772;DHT22;12556;55.748;13.194;2023-06-22T09:39:49;27.80;93.60
11772;DHT22;12556;55.748;13.194;2023-06-22T09:42:16;27.60;93.80
11772;DHT22;12556;55.748;13.194;2023-06-22T09:44:44;27.60;94.00
11772;DHT22;12556;55.748;13.194;2023-06-22T09:47:11;27.70;93.90
11772;DHT22;12556;55.748;13.194;2023-06-22T09:49:38;28.10;93.60
11772;DHT22;12556;55.748;13.194;2023-06-22T09:52:06;28.20;93.30
11772;DHT22;12556;55.748;13.194;2023-06-22T09:54:33;28.60;93.00
11772;DHT22;12556;55.748;13.194;2023-06-22T09:57:00;28.90;92.60
11772;DHT22;12556;55.748;13.194;2023-06-22T09:59:26;28.90;92.00
11772;DHT22;12556;55.748;13.194;2023-06-22T10:01:55;29.00;92.10
11772;DHT22;12556;55.748;13.194;2023-06-22T10:04:22;28.90;91.90
11772;DHT22;12556;55.748;13.194;2023-06-22T10:06:50;28.90;92.20
11772;DHT22;12556;55.748;13.194;2023-06-22T10:09:17;29.00;91.90
11772;DHT22;12556;55.748;13.194;2023-06-22T10:11:44;29.10;91.30
11772;DHT22;12556;55.748;13.194;2023-06-22T10:14:11;29.30;91.30
11772;DHT22;12556;55.748;13.194;2023-06-22T10:16:37;29.30;91.00
11772;DHT22;12556;55.748;13.194;2023-06-22T10:19:07;29.40;90.20
11772;DHT22;12556;55.748;13.194;2023-06-22T10:21:34;29.40;90.50
11772;DHT22;12556;55.748;13.194;2023-06-22T10:24:01;29.50;89.80
11772;DHT22;12556;55.748;13.194;2023-06-22T10:26:31;29.50;89.40
11772;DHT22;12556;55.748;13.194;2023-06-22T10:28:58;29.50;90.10
11772;DHT22;12556;55.748;13.194;2023-06-22T10:31:25;29.80;89.40
11772;DHT22;12556;55.748;13.194;2023-06-22T10:33:53;30.00;88.80
11772;DHT22;12556;55.748;13.194;2023-06-22T10:36:22;30.30;87.90
11772;DHT22;12556;55.748;13.194;2023-06-22T10:38:49;30.40;86.40
11772;DHT22;12556;55.748;13.194;2023-06-22T10:41:15;30.40;85.50
11772;DHT22;12556;55.748;13.194;2023-06-22T10:43:42;30.60;85.70
11772;DHT22;12556;55.748;13.194;2023-06-22T10:46:09;30.60;84.80
11772;DHT22;12556;55.748;13.194;2023-06-22T10:48:36;30.70;84.90
11772;DHT22;12556;55.748;13.194;2023-06-22T10:51:03;31.10;84.40
11772;DHT22;12556;55.748;13.194;2023-06-22T10:53:32;31.30;83.40
11772;DHT22;12556;55.748;13.194;2023-06-22T10:55:58;31.20;82.00
11772;DHT22;12556;55.748;13.194;2023-06-22T10:58:25;31.20;82.70
11772;DHT22;12556;55.748;13.194;2023-06-22T11:00:52;31.20;82.50
11772;DHT22;12556;55.748;13.194;2023-06-22T11:03:19;31.50;81.30
11772;DHT22;12556;55.748;13.194;2023-06-22T11:05:46;31.60;80.20
11772;DHT22;12556;55.748;13.194;2023-06-22T11:08:13;31.70;79.20
11772;DHT22;12556;55.748;13.194;2023-06-22T11:10:42;31.80;78.40
11772;DHT22;12556;55.748;13.194;2023-06-22T11:13:09;31.80;78.40
11772;DHT22;12556;55.748;13.194;2023-06-22T11:15:36;31.70;78.20
11772;DHT22;12556;55.748;13.194;2023-06-22T11:18:03;31.90;77.20
11772;DHT22;12556;55.748;13.194;2023-06-22T11:20:33;31.90;75.80
11772;DHT22;12556;55.748;13.194;2023-06-22T11:23:04;31.80;75.80
11772;DHT22;12556;55.748;13.194;2023-06-22T11:25:31;31.50;75.80
11772;DHT22;12556;55.748;13.194;2023-06-22T11:27:59;31.60;76.20
11772;DHT22;12556;55.748;13.194;2023-06-22T11:30:26;31.80;75.20
11772;DHT22;12556;55.748;13.194;2023-06-22T11:32:53;32.00;74.70
11772;DHT22;12556;55.748;13.194;2023-06-22T11:35:20;32.20;73.70
11772;DHT22;12556;55.748;13.194;2023-06-22T11:37:46;32.30;73.90
11772;DHT22;12556;55.748;13.194;2023-06-22T11:40:14;32.50;72.80
11772;DHT22;12556;55.748;13.194;2023-06-22T11:42:40;32.70;73.30
11772;DHT22;12556;55.748;13.194;2023-06-22T11:45:09;32.70;73.30
11772;DHT22;12556;55.748;13.194;2023-06-22T11:47:36;32.60;71.10
11772;DHT22;12556;55.748;13.194;2023-06-22T11:50:06;32.50;70.40
11772;DHT22;12556;55.748;13.194;2023-06-22T11:52:33;32.40;69.90
11772;DHT22;12556;55.748;13.194;2023-06-22T11:55:01;32.50;70.00
11772;DHT22;12556;55.748;13.194;2023-06-22T11:57:29;32.50;70.60
11772;DHT22;12556;55.748;13.194;2023-06-22T11:59:56;32.50;70.00
11772;DHT22;12556;55.748;13.194;2023-06-22T12:02:24;32.60;68.50
11772;DHT22;12556;55.748;13.194;2023-06-22T12:04:51;32.50;68.60
11772;DHT22;12556;55.748;13.194;2023-06-22T12:07:20;32.60;69.20
11772;DHT22;12556;55.748;13.194;2023-06-22T12:09:47;33.00;68.30
11772;DHT22;12556;55.748;13.194;2023-06-22T12:12:14;33.10;67.10
11772;DHT22;12556;55.748;13.194;2023-06-22T12:14:41;33.00;65.50
11772;DHT22;12556;55.748;13.194;2023-06-22T12:17:08;32.80;65.70
11772;DHT22;12556;55.748;13.194;2023-06-22T12:19:36;32.80;64.90
11772;DHT22;12556;55.748;13.194;2023-06-22T12:22:03;32.80;65.20
11772;DHT22;12556;55.748;13.194;2023-06-22T12:24:30;32.90;65.00
11772;DHT22;12556;55.748;13.194;2023-06-22T12:26:57;33.00;64.80
11772;DHT22;12556;55.748;13.194;2023-06-22T12:29:23;33.10;63.60
11772;DHT22;12556;55.748;13.194;2023-06-22T12:31:50;33.20;63.40
11772;DHT22;12556;55.748;13.194;2023-06-22T12:34:17;33.00;64.20
11772;DHT22;12556;55.748;13.194;2023-06-22T12:36:45;33.00;63.90
11772;DHT22;12556;55.748;13.194;2023-06-22T12:39:13;33.30;64.10
11772;DHT22;12556;55.748;13.194;2023-06-22T12:41:40;33.20;62.70
11772;DHT22;12556;55.748;13.194;2023-06-22T12:44:07;33.00;62.90
11772;DHT22;12556;55.748;13.194;2023-06-22T12:46:34;32.90;63.10
11772;DHT22;12556;55.748;13.194;2023-06-22T12:49:03;33.20;62.30
11772;DHT22;12556;55.748;13.194;2023-06-22T12:51:30;33.20;62.00
11772;DHT22;12556;55.748;13.194;2023-06-22T12:53:58;33.40;62.00
11772;DHT22;12556;55.748;13.194;2023-06-22T12:56:25;33.40;61.80
11772;DHT22;12556;55.748;13.194;2023-06-22T12:58:52;33.50;61.40
11772;DHT22;12556;55.748;13.194;2023-06-22T13:01:19;33.50;60.50
11772;DHT22;12556;55.748;13.194;2023-06-22T13:03:46;33.40;60.00
11772;DHT22;12556;55.748;13.194;2023-06-22T13:06:12;33.00;60.90
11772;DHT22;12556;55.748;13.194;2023-06-22T13:08:40;32.80;61.10
11772;DHT22;12556;55.748;13.194;2023-06-22T13:11:08;32.60;60.30
11772;DHT22;12556;55.748;13.194;2023-06-22T13:13:35;32.40;59.80
11772;DHT22;12556;55.748;13.194;2023-06-22T13:16:02;32.10;60.40
11772;DHT22;12556;55.748;13.194;2023-06-22T13:18:29;32.10;60.40
11772;DHT22;12556;55.748;13.194;2023-06-22T13:20:55;31.90;60.80
11772;DHT22;12556;55.748;13.194;2023-06-22T13:23:23;31.90;60.70
11772;DHT22;12556;55.748;13.194;2023-06-22T13:25:50;32.10;60.40
11772;DHT22;12556;55.748;13.194;2023-06-22T13:28:18;32.20;60.20
11772;DHT22;12556;55.748;13.194;2023-06-22T13:30:47;32.00;60.30
11772;DHT22;12556;55.748;13.194;2023-06-22T13:33:14;31.80;60.70
11772;DHT22;12556;55.748;13.194;2023-06-22T13:35:41;31.60;61.20
11772;DHT22;12556;55.748;13.194;2023-06-22T13:38:09;31.90;61.30
11772;DHT22;12556;55.748;13.194;2023-06-22T13:40:36;32.00;61.80
11772;DHT22;12556;55.748;13.194;2023-06-22T13:43:04;32.10;62.20
11772;DHT22;12556;55.748;13.194;2023-06-22T13:45:32;32.50;61.50
11772;DHT22;12556;55.748;13.194;2023-06-22T13:47:59;32.40;60.60
11772;DHT22;12556;55.748;13.194;2023-06-22T13:50:26;31.90;60.90
11772;DHT22;12556;55.748;13.194;2023-06-22T13:52:54;31.90;61.60
11772;DHT22;12556;55.748;13.194;2023-06-22T13:55:22;32.20;62.30
11772;DHT22;12556;55.748;13.194;2023-06-22T13:57:49;32.40;60.80
11772;DHT22;12556;55.748;13.194;2023-06-22T14:00:17;32.50;61.00
11772;DHT22;12556;55.748;13.194;2023-06-22T14:02:46;32.60;60.70
11772;DHT22;12556;55.748;13.194;2023-06-22T14:05:12;32.30;61.90
11772;DHT22;12556;55.748;13.194;2023-06-22T14:07:39;32.30;60.50
11772;DHT22;12556;55.748;13.194;2023-06-22T14:10:07;32.20;61.40
11772;DHT22;12556;55.748;13.194;2023-06-22T14:12:34;32.00;60.90
11772;DHT22;12556;55.748;13.194;2023-06-22T14:15:00;31.90;61.70
11772;DHT22;12556;55.748;13.194;2023-06-22T14:17:27;32.00;61.20
11772;DHT22;12556;55.748;13.194;2023-06-22T14:19:55;32.20;61.00
11772;DHT22;12556;55.748;13.194;2023-06-22T14:22:22;32.30;60.90
11772;DHT22;12556;55.748;13.194;2023-06-22T14:24:49;32.30;60.90
11772;DHT22;12556;55.748;13.194;2023-06-22T14:27:16;32.20;60.30
11772;DHT22;12556;55.748;13.194;2023-06-22T14:29:43;32.20;61.30
11772;DHT22;12556;55.748;13.194;2023-06-22T14:32:10;32.10;61.50
11772;DHT22;12556;55.748;13.194;2023-06-22T14:34:37;32.10;61.00
11772;DHT22;12556;55.748;13.194;2023-06-22T14:37:07;32.30;59.70
11772;DHT22;12556;55.748;13.194;2023-06-22T14:39:35;32.50;59.80
11772;DHT22;12556;55.748;13.194;2023-06-22T14:42:02;32.60;59.50
11772;DHT22;12556;55.748;13.194;2023-06-22T14:44:29;32.70;59.30
11772;DHT22;12556;55.748;13.194;2023-06-22T14:46:56;32.70;59.40
11772;DHT22;12556;55.748;13.194;2023-06-22T14:49:23;32.70;59.60
11772;DHT22;12556;55.748;13.194;2023-06-22T14:51:50;32.40;59.30
11772;DHT22;12556;55.748;13.194;2023-06-22T14:54:18;32.40;59.30
11772;DHT22;12556;55.748;13.194;2023-06-22T14:56:45;32.40;59.10
11772;DHT22;12556;55.748;13.194;2023-06-22T14:59:12;32.30;59.20
11772;DHT22;12556;55.748;13.194;2023-06-22T15:01:39;32.40;59.00
11772;DHT22;12556;55.748;13.194;2023-06-22T15:04:06;32.30;59.00
11772;DHT22;12556;55.748;13.194;2023-06-22T15:06:33;32.10;59.00
11772;DHT22;12556;55.748;13.194;2023-06-22T15:09:00;31.80;59.40
11772;DHT22;12556;55.748;13.194;2023-06-22T15:11:28;31.40;60.00
11772;DHT22;12556;55.748;13.194;2023-06-22T15:13:58;30.90;60.70
11772;DHT22;12556;55.748;13.194;2023-06-22T15:16:25;30.80;60.70
11772;DHT22;12556;55.748;13.194;2023-06-22T15:18:52;30.60;61.30
11772;DHT22;12556;55.748;13.194;2023-06-22T15:21:19;30.50;62.10